createdAt,value
2017-09-23T00:00:13.112Z,99.90
2017-09-23T00:02:40.770Z,99.90
2017-09-23T00:05:08.515Z,99.90
2017-09-23T00:07:36.142Z,99.90
2017-09-23T00:10:03.810Z,99.90
2017-09-23T00:12:32.334Z,99.90
2017-09-23T00:14:59.983Z,99.90
2017-09-23T00:17:27.688Z,99.90
2017-09-23T00:19:55.435Z,99.90
2017-09-23T00:22:23.070Z,99.90
2017-09-23T00:24:50.723Z,99.90
2017-09-23T00:27:19.165Z,99.90
2017-09-23T00:29:46.776Z,99.90
2017-09-23T00:32:15.200Z,99.90
2017-09-23T00:34:42.829Z,99.90
2017-09-23T00:37:10.528Z,99.90
2017-09-23T00:39:38.151Z,99.90
2017-09-23T00:42:06.678Z,99.90
2017-09-23T00:44:34.400Z,99.90
2017-09-23T00:47:04.080Z,99.90
2017-09-23T00:49:31.736Z,99.90
2017-09-23T00:52:00.317Z,99.90
2017-09-23T00:54:28.081Z,99.90
2017-09-23T00:56:55.743Z,99.90
2017-09-23T00:59:23.436Z,99.90
2017-09-23T01:01:51.048Z,99.90
2017-09-23T01:04:18.848Z,99.90
2017-09-23T01:06:46.512Z,99.90
2017-09-23T01:09:14.198Z,99.90
2017-09-23T01:11:42.051Z,99.90
2017-09-23T01:14:09.674Z,99.90
2017-09-23T01:16:38.202Z,99.90
2017-09-23T01:19:05.824Z,99.90
2017-09-23T01:21:34.351Z,99.90
2017-09-23T01:24:02.017Z,99.90
2017-09-23T01:26:29.702Z,99.90
2017-09-23T01:28:57.466Z,99.90
2017-09-23T01:31:25.112Z,99.90
2017-09-23T01:33:52.802Z,99.90
2017-09-23T01:36:21.294Z,99.90
2017-09-23T01:38:50.416Z,99.90
2017-09-23T01:41:18.841Z,99.90
2017-09-23T01:43:46.618Z,99.90
2017-09-23T01:46:14.334Z,99.90
2017-09-23T01:48:42.891Z,99.90
2017-09-23T01:51:10.533Z,99.90
2017-09-23T01:53:38.306Z,99.90
2017-09-23T01:56:05.994Z,99.90
2017-09-23T01:58:33.886Z,99.90
2017-09-23T02:01:01.617Z,99.90
2017-09-23T02:03:29.253Z,99.90
2017-09-23T02:05:56.895Z,99.90
2017-09-23T02:08:25.535Z,99.90
2017-09-23T02:10:53.147Z,99.90
2017-09-23T02:13:20.800Z,99.90
2017-09-23T02:15:48.531Z,99.90
2017-09-23T02:18:17.208Z,99.90
2017-09-23T02:20:44.881Z,99.90
2017-09-23T02:23:12.570Z,99.90
2017-09-23T02:25:40.206Z,99.90
2017-09-23T02:28:07.902Z,99.90
2017-09-23T02:30:35.588Z,99.90
2017-09-23T02:33:03.409Z,99.90
2017-09-23T02:35:31.118Z,99.90
2017-09-23T02:37:58.732Z,99.90
2017-09-23T02:40:26.458Z,99.90
2017-09-23T02:42:55.018Z,99.90
2017-09-23T02:45:22.877Z,99.90
2017-09-23T02:47:50.491Z,99.90
2017-09-23T02:50:18.926Z,99.90
2017-09-23T02:52:47.529Z,99.90
2017-09-23T02:55:15.958Z,99.90
2017-09-23T02:57:43.736Z,99.90
2017-09-23T03:00:11.376Z,99.90
2017-09-23T03:02:39.917Z,99.90
2017-09-23T03:05:07.609Z,99.90
2017-09-23T03:07:35.474Z,99.90
2017-09-23T03:10:03.223Z,99.90
2017-09-23T03:12:30.991Z,99.90
2017-09-23T03:14:58.756Z,99.90
2017-09-23T03:17:27.135Z,99.90
2017-09-23T03:19:54.899Z,99.90
2017-09-23T03:22:22.511Z,99.90
2017-09-23T03:24:50.169Z,99.90
2017-09-23T03:27:18.590Z,99.90
2017-09-23T03:29:46.248Z,99.90
2017-09-23T03:32:14.901Z,99.90
2017-09-23T03:34:42.599Z,99.90
2017-09-23T03:37:10.304Z,99.90
2017-09-23T03:39:37.994Z,99.90
2017-09-23T03:42:05.660Z,99.90
2017-09-23T03:44:33.437Z,99.90
2017-09-23T03:47:01.090Z,99.90
2017-09-23T03:49:28.846Z,99.90
2017-09-23T03:51:56.531Z,99.90
2017-09-23T03:54:24.304Z,99.90
2017-09-23T03:56:52.744Z,99.90
2017-09-23T03:59:20.364Z,99.90
2017-09-23T04:01:48.626Z,99.90
2017-09-23T04:04:16.450Z,99.90
2017-09-23T04:06:44.074Z,99.90
2017-09-23T04:09:11.827Z,99.90
2017-09-23T04:11:39.464Z,99.90
2017-09-23T04:14:07.154Z,99.90
2017-09-23T04:16:34.832Z,99.90
2017-09-23T04:19:03.499Z,99.90
2017-09-23T04:21:31.186Z,99.90
2017-09-23T04:23:58.846Z,99.90
2017-09-23T04:26:26.592Z,99.90
2017-09-23T04:28:54.265Z,99.90
2017-09-23T04:31:21.900Z,99.90
2017-09-23T04:33:49.492Z,99.90
2017-09-23T04:36:17.163Z,99.90
2017-09-23T04:38:44.753Z,99.90
2017-09-23T04:41:13.896Z,99.90
2017-09-23T04:43:41.484Z,99.90
2017-09-23T04:46:09.069Z,99.90
2017-09-23T04:48:37.191Z,99.90
2017-09-23T04:51:05.611Z,99.90
2017-09-23T04:53:33.207Z,99.90
2017-09-23T04:56:00.787Z,99.90
2017-09-23T04:58:30.051Z,99.90
2017-09-23T05:00:57.793Z,99.90
2017-09-23T05:03:25.371Z,99.90
2017-09-23T05:05:52.957Z,99.90
2017-09-23T05:08:21.101Z,99.90
2017-09-23T05:10:48.883Z,99.90
2017-09-23T05:13:16.459Z,99.90
2017-09-23T05:15:44.055Z,99.90
2017-09-23T05:18:11.631Z,99.90
2017-09-23T05:20:40.547Z,99.90
2017-09-23T05:23:08.138Z,99.90
2017-09-23T05:25:35.798Z,99.90
2017-09-23T05:28:03.357Z,99.90
2017-09-23T05:30:30.946Z,99.90
2017-09-23T05:32:58.581Z,99.90
2017-09-23T05:35:27.599Z,99.90
2017-09-23T05:37:56.241Z,99.90
2017-09-23T05:40:24.587Z,99.90
2017-09-23T05:42:52.184Z,99.90
2017-09-23T05:45:20.584Z,99.90
2017-09-23T05:47:48.273Z,99.90
2017-09-23T05:50:15.874Z,99.90
2017-09-23T05:52:43.456Z,99.90
2017-09-23T05:55:11.833Z,99.90
2017-09-23T05:57:40.202Z,99.90
2017-09-23T06:00:08.566Z,99.90
2017-09-23T06:02:36.161Z,99.90
2017-09-23T06:05:04.527Z,99.90
2017-09-23T06:07:32.103Z,99.90
2017-09-23T06:09:59.731Z,99.90
2017-09-23T06:12:27.321Z,99.90
2017-09-23T06:14:54.924Z,99.90
2017-09-23T06:17:23.316Z,99.90
2017-09-23T06:19:50.879Z,99.90
2017-09-23T06:22:18.498Z,99.90
2017-09-23T06:24:46.101Z,99.90
2017-09-23T06:27:13.715Z,99.90
2017-09-23T06:29:41.304Z,99.90
2017-09-23T06:32:08.902Z,99.90
2017-09-23T06:34:36.517Z,99.90
2017-09-23T06:37:04.149Z,99.90
2017-09-23T06:39:31.776Z,99.90
2017-09-23T06:42:00.115Z,99.90
2017-09-23T06:44:27.725Z,99.90
2017-09-23T06:46:56.071Z,99.90
2017-09-23T06:49:23.684Z,99.90
2017-09-23T06:51:51.262Z,99.80
2017-09-23T06:54:18.936Z,99.70
2017-09-23T06:56:46.525Z,99.80
2017-09-23T06:59:14.123Z,99.90
2017-09-23T07:01:42.470Z,99.80
2017-09-23T07:04:10.089Z,99.80
2017-09-23T07:06:37.664Z,99.40
2017-09-23T07:09:05.272Z,99.50
2017-09-23T07:11:33.071Z,99.10
2017-09-23T07:14:01.450Z,99.30
2017-09-23T07:16:29.791Z,99.20
2017-09-23T07:18:57.394Z,99.10
2017-09-23T07:21:25.724Z,99.60
2017-09-23T07:23:53.332Z,99.60
2017-09-23T07:26:21.675Z,98.90
2017-09-23T07:28:49.270Z,98.80
2017-09-23T07:31:17.630Z,99.00
2017-09-23T07:33:45.261Z,99.00
2017-09-23T07:36:12.820Z,99.40
2017-09-23T07:38:40.413Z,99.50
2017-09-23T07:41:08.023Z,99.60
2017-09-23T07:43:36.383Z,99.60
2017-09-23T07:46:03.982Z,99.30
2017-09-23T07:48:32.316Z,99.20
2017-09-23T07:50:59.957Z,99.20
2017-09-23T07:53:27.587Z,99.50
2017-09-23T07:55:55.948Z,98.70
2017-09-23T07:58:23.530Z,98.60
2017-09-23T08:00:51.962Z,99.40
2017-09-23T08:03:19.551Z,99.30
2017-09-23T08:05:47.131Z,99.20
2017-09-23T08:08:14.749Z,99.50
2017-09-23T08:10:42.318Z,98.80
2017-09-23T08:13:09.919Z,98.90
2017-09-23T08:15:39.012Z,99.40
2017-09-23T08:18:06.607Z,99.40
2017-09-23T08:20:34.941Z,99.10
2017-09-23T08:23:02.551Z,99.10
2017-09-23T08:25:31.579Z,98.40
2017-09-23T08:27:59.159Z,98.40
2017-09-23T08:30:26.774Z,98.50
2017-09-23T08:32:55.150Z,98.70
2017-09-23T08:35:23.549Z,98.90
2017-09-23T08:37:51.872Z,98.40
2017-09-23T08:40:19.461Z,98.40
2017-09-23T08:42:47.018Z,98.20
2017-09-23T08:45:14.578Z,98.20
2017-09-23T08:47:42.164Z,97.80
2017-09-23T08:50:09.740Z,98.30
2017-09-23T08:52:38.135Z,98.00
2017-09-23T08:55:05.719Z,97.90
2017-09-23T08:57:33.318Z,98.10
2017-09-23T09:00:00.905Z,97.80
2017-09-23T09:02:29.284Z,98.20
2017-09-23T09:04:57.649Z,99.30
2017-09-23T09:07:25.249Z,99.00
2017-09-23T09:09:53.687Z,99.00
2017-09-23T09:12:21.244Z,98.90
2017-09-23T09:14:48.857Z,98.40
2017-09-23T09:17:17.186Z,98.30
2017-09-23T09:19:44.773Z,98.30
2017-09-23T09:22:12.344Z,98.30
2017-09-23T09:24:40.720Z,98.40
2017-09-23T09:27:08.314Z,98.40
2017-09-23T09:29:36.657Z,98.20
2017-09-23T09:32:04.311Z,98.20
2017-09-23T09:34:31.887Z,98.70
2017-09-23T09:36:59.490Z,98.90
2017-09-23T09:39:27.845Z,98.50
2017-09-23T09:41:55.471Z,98.50
2017-09-23T09:44:23.033Z,98.50
2017-09-23T09:46:50.604Z,98.50
2017-09-23T09:49:18.184Z,98.70
2017-09-23T09:51:45.744Z,98.80
2017-09-23T09:54:13.364Z,97.90
2017-09-23T09:56:40.975Z,98.80
2017-09-23T09:59:08.604Z,98.40
2017-09-23T10:01:36.179Z,97.80
2017-09-23T10:04:03.769Z,98.10
2017-09-23T10:06:31.359Z,98.00
2017-09-23T10:08:58.925Z,98.50
2017-09-23T10:11:26.531Z,98.00
2017-09-23T10:13:54.115Z,97.90
2017-09-23T10:16:21.727Z,97.70
2017-09-23T10:18:50.057Z,97.70
2017-09-23T10:21:17.666Z,97.70
2017-09-23T10:23:45.290Z,97.90
2017-09-23T10:26:12.892Z,98.30
2017-09-23T10:28:40.486Z,98.30
2017-09-23T10:31:08.843Z,96.90
2017-09-23T10:33:36.432Z,96.90
2017-09-23T10:36:04.807Z,96.90
2017-09-23T10:38:33.165Z,96.60
2017-09-23T10:41:00.738Z,96.60
2017-09-23T10:43:28.352Z,97.40
2017-09-23T10:45:55.940Z,97.20
2017-09-23T10:48:23.533Z,97.60
2017-09-23T10:50:51.132Z,97.60
2017-09-23T10:53:18.710Z,96.30
2017-09-23T10:55:46.323Z,95.90
2017-09-23T10:58:13.903Z,96.50
2017-09-23T11:00:42.225Z,95.90
2017-09-23T11:03:09.832Z,95.90
2017-09-23T11:05:37.871Z,96.40
2017-09-23T11:08:05.475Z,96.60
2017-09-23T11:10:33.039Z,97.20
2017-09-23T11:13:00.633Z,97.10
2017-09-23T11:15:28.223Z,95.60
2017-09-23T11:17:55.799Z,95.40
2017-09-23T11:20:23.405Z,97.10
2017-09-23T11:22:51.755Z,94.90
2017-09-23T11:25:19.354Z,94.90
2017-09-23T11:27:47.695Z,93.40
2017-09-23T11:30:15.284Z,93.40
2017-09-23T11:32:42.864Z,93.20
2017-09-23T11:35:11.202Z,92.60
2017-09-23T11:37:38.855Z,92.60
2017-09-23T11:40:06.435Z,90.60
2017-09-23T11:42:34.049Z,90.70
2017-09-23T11:45:01.631Z,89.50
2017-09-23T11:47:29.225Z,84.80
2017-09-23T11:49:57.805Z,86.10
2017-09-23T11:52:25.377Z,84.80
2017-09-23T11:54:52.993Z,79.80
2017-09-23T11:57:21.361Z,80.50
2017-09-23T11:59:49.745Z,72.70
2017-09-23T12:02:18.088Z,74.00
2017-09-23T12:04:45.698Z,74.00
2017-09-23T12:07:14.036Z,76.30
2017-09-23T12:09:41.924Z,76.40
2017-09-23T12:12:10.311Z,74.80
2017-09-23T12:14:37.919Z,74.80
2017-09-23T12:17:05.499Z,75.80
2017-09-23T12:19:34.062Z,77.00
2017-09-23T12:22:01.775Z,81.00
2017-09-23T12:24:29.513Z,80.70
2017-09-23T12:26:57.073Z,78.80
2017-09-23T12:29:24.757Z,74.70
2017-09-23T12:31:52.358Z,77.30
2017-09-23T12:34:20.030Z,76.60
2017-09-23T12:36:48.530Z,77.20
2017-09-23T12:39:16.641Z,77.20
2017-09-23T12:41:44.251Z,70.30
2017-09-23T12:44:11.835Z,70.90
2017-09-23T12:46:40.188Z,68.60
2017-09-23T12:49:07.818Z,68.60
2017-09-23T12:51:35.438Z,68.80
2017-09-23T12:54:03.817Z,67.50
2017-09-23T12:56:32.179Z,66.90
2017-09-23T12:58:59.908Z,66.90
2017-09-23T13:01:27.677Z,69.70
2017-09-23T13:03:55.291Z,67.10
2017-09-23T13:06:22.877Z,71.80
2017-09-23T13:08:51.243Z,73.00
2017-09-23T13:11:19.260Z,72.90
2017-09-23T13:13:47.038Z,72.30
2017-09-23T13:16:14.674Z,74.30
2017-09-23T13:18:42.514Z,75.50
2017-09-23T13:21:12.133Z,72.60
2017-09-23T13:23:40.485Z,68.70
2017-09-23T13:26:08.046Z,68.60
2017-09-23T13:28:35.662Z,68.80
2017-09-23T13:31:03.229Z,71.20
2017-09-23T13:33:30.825Z,71.50
2017-09-23T13:35:58.419Z,72.60
2017-09-23T13:38:26.052Z,72.10
2017-09-23T13:40:53.654Z,72.10
2017-09-23T13:43:21.247Z,73.90
2017-09-23T13:45:49.644Z,72.20
2017-09-23T13:48:17.204Z,72.30
2017-09-23T13:50:44.802Z,73.90
2017-09-23T13:53:12.400Z,74.10
2017-09-23T13:55:40.046Z,76.90
2017-09-23T13:58:07.641Z,77.90
2017-09-23T14:00:35.983Z,79.10
2017-09-23T14:03:03.578Z,79.10
2017-09-23T14:05:31.173Z,77.40
2017-09-23T14:07:58.768Z,80.30
2017-09-23T14:10:26.370Z,79.70
2017-09-23T14:12:53.965Z,80.10
2017-09-23T14:15:21.593Z,82.30
2017-09-23T14:17:49.172Z,82.20
2017-09-23T14:20:17.540Z,84.20
2017-09-23T14:22:45.134Z,84.20
2017-09-23T14:25:12.797Z,82.80
2017-09-23T14:27:41.139Z,84.60
2017-09-23T14:30:08.719Z,84.60
2017-09-23T14:32:37.073Z,84.70
2017-09-23T14:35:04.659Z,84.60
2017-09-23T14:37:32.284Z,85.10
2017-09-23T14:39:59.863Z,85.90
2017-09-23T14:42:27.465Z,85.60
2017-09-23T14:44:55.024Z,86.90
2017-09-23T14:47:22.612Z,86.40
2017-09-23T14:49:50.979Z,84.50
2017-09-23T14:52:19.331Z,84.50
2017-09-23T14:54:47.864Z,84.50
2017-09-23T14:57:16.272Z,85.10
2017-09-23T14:59:43.913Z,85.00
2017-09-23T15:02:11.609Z,84.80
2017-09-23T15:04:39.231Z,83.20
2017-09-23T15:07:07.595Z,85.30
2017-09-23T15:09:35.869Z,85.40
2017-09-23T15:12:03.703Z,84.90
2017-09-23T15:14:31.283Z,83.70
2017-09-23T15:16:58.884Z,82.80
2017-09-23T15:19:26.445Z,81.30
2017-09-23T15:21:54.022Z,84.30
2017-09-23T15:24:22.577Z,84.60
2017-09-23T15:26:50.165Z,84.60
2017-09-23T15:29:18.535Z,83.80
2017-09-23T15:31:46.892Z,84.90
2017-09-23T15:34:14.540Z,84.80
2017-09-23T15:36:42.211Z,86.10
2017-09-23T15:39:10.744Z,88.20
2017-09-23T15:41:38.387Z,89.90
2017-09-23T15:44:05.963Z,89.90
2017-09-23T15:46:33.619Z,88.40
2017-09-23T15:49:01.256Z,89.60
2017-09-23T15:51:28.872Z,89.80
2017-09-23T15:53:57.211Z,90.80
2017-09-23T15:56:24.821Z,90.80
2017-09-23T15:58:53.218Z,90.90
2017-09-23T16:01:20.791Z,90.90
2017-09-23T16:03:48.397Z,90.90
2017-09-23T16:06:15.974Z,91.10
2017-09-23T16:08:43.599Z,91.20
2017-09-23T16:11:11.228Z,91.40
2017-09-23T16:13:39.585Z,92.20
2017-09-23T16:16:07.964Z,92.30
2017-09-23T16:18:35.581Z,92.00
2017-09-23T16:21:03.727Z,91.90
2017-09-23T16:23:31.308Z,92.10
2017-09-23T16:25:59.705Z,92.30
2017-09-23T16:28:27.275Z,92.30
2017-09-23T16:30:54.954Z,92.00
2017-09-23T16:33:22.548Z,92.20
2017-09-23T16:35:50.913Z,92.70
2017-09-23T16:38:18.507Z,92.60
2017-09-23T16:40:46.064Z,92.80
2017-09-23T16:43:13.657Z,92.80
2017-09-23T16:45:42.004Z,93.40
2017-09-23T16:48:09.560Z,93.40
2017-09-23T16:50:37.155Z,93.30
2017-09-23T16:53:05.494Z,93.50
2017-09-23T16:55:33.091Z,93.30
2017-09-23T16:58:00.651Z,93.50
2017-09-23T17:00:28.268Z,93.90
2017-09-23T17:02:55.833Z,93.90
2017-09-23T17:05:23.415Z,93.90
2017-09-23T17:07:50.997Z,93.70
2017-09-23T17:10:18.578Z,93.80
2017-09-23T17:12:46.187Z,93.90
2017-09-23T17:15:13.767Z,94.30
2017-09-23T17:17:41.368Z,94.10
2017-09-23T17:20:08.942Z,94.20
2017-09-23T17:22:37.282Z,94.40
2017-09-23T17:25:04.935Z,94.30
2017-09-23T17:27:32.541Z,94.60
2017-09-23T17:30:00.162Z,95.10
2017-09-23T17:32:28.706Z,95.10
2017-09-23T17:34:57.071Z,95.30
2017-09-23T17:37:26.248Z,95.40
2017-09-23T17:39:54.721Z,95.50
2017-09-23T17:42:22.302Z,95.50
2017-09-23T17:44:49.892Z,95.60
2017-09-23T17:47:17.499Z,95.80
2017-09-23T17:49:45.083Z,95.80
2017-09-23T17:52:12.694Z,95.70
2017-09-23T17:54:41.083Z,95.60
2017-09-23T17:57:09.455Z,95.60
2017-09-23T17:59:37.057Z,95.60
2017-09-23T18:02:04.713Z,95.30
2017-09-23T18:04:32.504Z,95.50
2017-09-23T18:07:00.101Z,95.20
2017-09-23T18:09:28.429Z,95.70
2017-09-23T18:11:55.989Z,95.50
2017-09-23T18:14:23.577Z,95.70
2017-09-23T18:16:51.145Z,95.60
2017-09-23T18:19:18.807Z,96.10
2017-09-23T18:21:46.473Z,96.30
2017-09-23T18:24:14.061Z,96.60
2017-09-23T18:26:41.642Z,96.80
2017-09-23T18:29:10.027Z,97.00
2017-09-23T18:31:37.615Z,96.90
2017-09-23T18:34:06.136Z,96.70
2017-09-23T18:36:33.750Z,96.70
2017-09-23T18:39:02.115Z,96.90
2017-09-23T18:41:29.738Z,96.90
2017-09-23T18:43:57.318Z,97.10
2017-09-23T18:46:24.890Z,97.30
2017-09-23T18:48:52.521Z,97.20
2017-09-23T18:51:20.132Z,96.80
2017-09-23T18:53:47.750Z,96.70
2017-09-23T18:56:15.434Z,96.60
2017-09-23T18:58:43.035Z,97.00
2017-09-23T19:01:10.620Z,96.80
2017-09-23T19:03:38.399Z,96.90
2017-09-23T19:06:06.822Z,97.30
2017-09-23T19:08:34.395Z,97.20
2017-09-23T19:11:01.971Z,97.20
2017-09-23T19:13:29.589Z,97.20
2017-09-23T19:15:57.167Z,96.90
2017-09-23T19:18:24.794Z,96.70
2017-09-23T19:20:53.217Z,96.80
2017-09-23T19:23:20.787Z,96.70
2017-09-23T19:25:48.394Z,96.90
2017-09-23T19:28:16.765Z,96.70
2017-09-23T19:30:44.364Z,96.70
2017-09-23T19:33:12.721Z,97.10
2017-09-23T19:35:40.330Z,97.10
2017-09-23T19:38:08.177Z,97.20
2017-09-23T19:40:36.536Z,97.30
2017-09-23T19:43:04.139Z,97.30
2017-09-23T19:45:31.696Z,97.40
2017-09-23T19:48:00.078Z,97.40
2017-09-23T19:50:27.715Z,97.40
2017-09-23T19:52:55.347Z,97.60
2017-09-23T19:55:23.040Z,97.60
2017-09-23T19:57:50.621Z,97.60
2017-09-23T20:00:19.053Z,97.70
2017-09-23T20:02:46.682Z,97.70
2017-09-23T20:05:14.276Z,97.80
2017-09-23T20:07:41.868Z,97.90
2017-09-23T20:10:09.435Z,98.00
2017-09-23T20:12:37.019Z,97.90
2017-09-23T20:15:04.652Z,97.70
2017-09-23T20:17:33.125Z,97.90
2017-09-23T20:20:00.755Z,97.90
2017-09-23T20:22:29.137Z,98.00
2017-09-23T20:24:57.509Z,97.90
2017-09-23T20:27:25.847Z,98.00
2017-09-23T20:29:53.487Z,97.90
2017-09-23T20:32:21.099Z,97.80
2017-09-23T20:34:48.706Z,98.00
2017-09-23T20:37:16.318Z,98.10
2017-09-23T20:39:44.914Z,98.00
2017-09-23T20:42:12.574Z,98.00
2017-09-23T20:44:40.173Z,98.10
2017-09-23T20:47:08.535Z,97.90
2017-09-23T20:49:36.187Z,97.90
2017-09-23T20:52:03.829Z,98.00
2017-09-23T20:54:31.434Z,98.00
2017-09-23T20:56:59.027Z,98.10
2017-09-23T20:59:26.674Z,98.10
2017-09-23T21:01:55.207Z,98.20
2017-09-23T21:04:22.809Z,98.00
2017-09-23T21:06:50.387Z,98.10
2017-09-23T21:09:17.980Z,98.00
2017-09-23T21:11:45.755Z,97.90
2017-09-23T21:14:13.311Z,98.00
2017-09-23T21:16:41.670Z,98.10
2017-09-23T21:19:10.039Z,97.90
2017-09-23T21:21:39.305Z,98.30
2017-09-23T21:24:07.709Z,98.00
2017-09-23T21:26:36.344Z,97.90
2017-09-23T21:29:04.078Z,97.90
2017-09-23T21:31:31.835Z,98.00
2017-09-23T21:33:59.434Z,97.90
2017-09-23T21:36:27.773Z,97.70
2017-09-23T21:38:56.238Z,97.70
2017-09-23T21:41:24.717Z,97.80
2017-09-23T21:43:52.305Z,97.70
2017-09-23T21:46:19.879Z,97.80
2017-09-23T21:48:47.616Z,97.90
2017-09-23T21:51:15.201Z,98.00
2017-09-23T21:53:42.958Z,98.00
2017-09-23T21:56:10.573Z,98.00
2017-09-23T21:58:38.942Z,98.00
2017-09-23T22:01:07.342Z,97.90
2017-09-23T22:03:35.697Z,98.00
2017-09-23T22:06:03.297Z,97.90
2017-09-23T22:08:31.705Z,97.70
2017-09-23T22:10:59.260Z,97.70
2017-09-23T22:13:26.856Z,97.70
2017-09-23T22:15:54.453Z,97.50
2017-09-23T22:18:22.843Z,97.50
2017-09-23T22:20:51.201Z,97.80
2017-09-23T22:23:18.805Z,97.80
2017-09-23T22:25:46.372Z,97.80
2017-09-23T22:28:14.950Z,97.50
2017-09-23T22:30:43.276Z,97.60
2017-09-23T22:33:10.845Z,97.60
2017-09-23T22:35:38.443Z,97.80
2017-09-23T22:38:06.806Z,97.50
2017-09-23T22:40:34.388Z,97.50
2017-09-23T22:43:02.757Z,97.90
2017-09-23T22:45:30.368Z,97.60
2017-09-23T22:47:57.943Z,97.60
2017-09-23T22:50:25.524Z,97.20
2017-09-23T22:52:53.161Z,97.00
2017-09-23T22:55:20.761Z,97.10
2017-09-23T22:57:48.379Z,96.80
2017-09-23T23:00:15.977Z,96.90
2017-09-23T23:02:44.758Z,96.90
2017-09-23T23:05:12.357Z,97.10
2017-09-23T23:07:39.939Z,97.00
2017-09-23T23:10:07.530Z,97.10
2017-09-23T23:12:35.097Z,96.80
2017-09-23T23:15:03.056Z,96.90
2017-09-23T23:17:31.471Z,97.60
2017-09-23T23:19:59.090Z,97.60
2017-09-23T23:22:27.431Z,97.40
2017-09-23T23:24:55.377Z,97.30
2017-09-23T23:27:23.014Z,97.40
2017-09-23T23:29:51.371Z,97.10
2017-09-23T23:32:18.989Z,97.10
2017-09-23T23:34:46.570Z,97.40
2017-09-23T23:37:14.234Z,97.40
2017-09-23T23:39:41.879Z,97.20
2017-09-23T23:42:09.514Z,97.30
2017-09-23T23:44:37.878Z,97.70
2017-09-23T23:47:05.444Z,97.60
2017-09-23T23:49:34.279Z,97.60
2017-09-23T23:52:01.866Z,97.50
2017-09-23T23:54:29.522Z,97.60
2017-09-23T23:56:57.113Z,97.60
2017-09-23T23:59:24.720Z,97.80
